»·PEaware :: CARBN11 KLSV-KLSV

CARBN11 :: KLSV-KLSV

FLIGHT INFORMATION

Flight Status: Arrived
Operator: Unknown
More flights by this operator :: More flights under this callsign
Pilot: Logan D. (20254)
Aircraft: DASSAULT AVIATION MIRAGE 2000 VAJARA
(MIR2)
More flights by this aircraft type
Origin: KLSV Nellis AFB
United States
Destination: KLSV Nellis AFB
United States
More flights between these airports :: More routes between these airports
Route: LSV MMM6 MMM LSV
File this flight plan on PilotEdge
Remarks: RETURN TO LSV FOR T-N-G
Altitude:
(Current/Filed)
15,000ft
Speed:
(Current/Filed)
300kts
Departed: 20-Jan-19 10:38 AM
Arrived: 20-Jan-19 11:02 AM
Distance/Time
Traveled:
1nm/0:24
Distance/Time
To Go:
Arrived

Flight Plot

Page will automatically refresh every two minutes.

Flight plan parsing failed; only flown route is shown


Map Options




Map Legend


Flown Route
Filed Route
Departure Airport
Arrival Airport
Navaid (VOR, NDB)
Fix

Horizontal Profiles

Position Reports

Time Latitude Longitude Heading Altitude Ground
Speed
20-Jan-19 10:05 36.226264 -115.048986 129 1847ft 0kts
20-Jan-19 10:06 36.226264 -115.048986 129 1847ft 0kts
20-Jan-19 10:07 36.226264 -115.048986 129 1847ft 0kts
20-Jan-19 10:08 36.226264 -115.048986 129 1847ft 0kts
20-Jan-19 10:09 36.226264 -115.048986 129 1847ft 0kts
20-Jan-19 10:10 36.226264 -115.048986 129 1847ft 0kts
20-Jan-19 10:11 36.226264 -115.048986 129 1847ft 0kts
20-Jan-19 10:12 36.226264 -115.048986 129 1847ft 0kts
20-Jan-19 10:13 36.226264 -115.048986 129 1847ft 0kts
20-Jan-19 10:14 36.226264 -115.048986 129 1847ft 0kts
20-Jan-19 10:15 36.226264 -115.048986 129 1847ft 0kts
20-Jan-19 10:16 36.226264 -115.048986 129 1847ft 0kts
20-Jan-19 10:17 36.226264 -115.048986 129 1847ft 0kts
20-Jan-19 10:18 36.226264 -115.048986 129 1847ft 0kts
20-Jan-19 10:19 36.226264 -115.048986 129 1847ft 0kts
20-Jan-19 10:20 36.226264 -115.048986 129 1847ft 0kts
20-Jan-19 10:21 36.226264 -115.048986 129 1847ft 0kts
20-Jan-19 10:22 36.226264 -115.048986 129 1847ft 0kts
20-Jan-19 10:23 36.226264 -115.048986 129 1847ft 0kts
20-Jan-19 10:24 36.226264 -115.048986 129 1847ft 0kts
20-Jan-19 10:25 36.226264 -115.048986 129 1847ft 0kts
20-Jan-19 10:26 36.226264 -115.048986 129 1847ft 0kts
20-Jan-19 10:27 36.226264 -115.048986 129 1847ft 0kts
20-Jan-19 10:28 36.226264 -115.048986 129 1847ft 0kts
20-Jan-19 10:29 36.226264 -115.048986 129 1847ft 0kts
20-Jan-19 10:30 36.226264 -115.048986 129 1847ft 0kts
20-Jan-19 10:31 36.226264 -115.048986 129 1847ft 0kts
20-Jan-19 10:32 36.226264 -115.048986 129 1847ft 0kts
20-Jan-19 10:33 36.226264 -115.048986 129 1847ft 0kts
20-Jan-19 10:34 36.226176 -115.048849 121 1847ft 2kts
20-Jan-19 10:35 36.227180 -115.047567 44 1847ft 3kts
20-Jan-19 10:36 36.227231 -115.047423 85 1847ft 7kts
20-Jan-19 10:37 36.232598 -115.040341 40 1850ft 153kts
20-Jan-19 10:38 36.302995 -114.963810 40 4489ft 485kts
20-Jan-19 10:39 36.396774 -114.861545 40 8272ft 380kts
20-Jan-19 10:40 36.465799 -114.768013 49 11136ft 389kts
20-Jan-19 10:41 36.538302 -114.656172 49 14720ft 429kts
20-Jan-19 10:42 36.619339 -114.530803 49 14980ft 491kts
20-Jan-19 10:43 36.707378 -114.394103 49 14980ft 512kts
20-Jan-19 10:44 36.782101 -114.277644 49 14977ft 381kts
20-Jan-19 10:45 36.853989 -114.186810 348 14983ft 342kts
20-Jan-19 10:46 36.821777 -114.253507 203 12364ft 425kts
20-Jan-19 10:47 36.734872 -114.370370 228 10949ft 473kts
20-Jan-19 10:48 36.649787 -114.497340 228 9751ft 481kts
20-Jan-19 10:49 36.577365 -114.605025 228 8976ft 304kts
20-Jan-19 10:50 36.522216 -114.688546 229 8944ft 322kts
20-Jan-19 10:51 36.460551 -114.772725 224 8371ft 334kts
20-Jan-19 10:52 36.394088 -114.855148 224 6138ft 313kts
20-Jan-19 10:53 36.327318 -114.931939 221 4682ft 307kts
20-Jan-19 10:54 36.266265 -114.999300 220 2754ft 272kts
20-Jan-19 10:55 36.219121 -115.050281 216 2096ft 221kts
20-Jan-19 10:56 36.195843 -115.005569 49 3988ft 327kts
20-Jan-19 10:57 36.268483 -114.937909 338 3813ft 322kts
20-Jan-19 10:58 36.257767 -115.008417 220 2193ft 213kts
20-Jan-19 11:01 36.226264 -115.048986 129 1847ft 0kts

Navigation Log

Ident Type
Flight plan parsing failed, navigation log unavailable